createdAt,value
2023-01-19T00:00:55.853Z,-1.00
2023-01-19T00:03:23.026Z,-1.00
2023-01-19T00:05:50.299Z,-1.00
2023-01-19T00:08:18.378Z,-1.00
2023-01-19T00:10:48.223Z,-1.10
2023-01-19T00:13:15.842Z,-1.10
2023-01-19T00:15:44.065Z,-1.10
2023-01-19T00:18:11.680Z,-1.10
2023-01-19T00:20:40.088Z,-1.10
2023-01-19T00:23:08.445Z,-1.10
2023-01-19T00:25:42.878Z,-1.20
2023-01-19T00:28:14.778Z,-1.20
2023-01-19T00:30:42.540Z,-1.20
2023-01-19T00:33:10.895Z,-1.20
2023-01-19T00:35:38.079Z,-1.20
2023-01-19T00:38:05.411Z,-1.20
2023-01-19T00:40:32.683Z,-1.20
2023-01-19T00:43:00.868Z,-1.20
2023-01-19T00:45:28.285Z,-1.20
2023-01-19T00:47:57.494Z,-1.30
2023-01-19T00:50:26.572Z,-1.20
2023-01-19T00:52:55.486Z,-1.10
2023-01-19T00:55:23.455Z,-1.10
2023-01-19T00:57:50.949Z,-1.00
2023-01-19T01:00:20.111Z,-1.00
2023-01-19T01:02:49.090Z,-1.00
2023-01-19T01:05:17.318Z,-1.00
2023-01-19T01:07:45.628Z,-1.10
2023-01-19T01:10:21.793Z,-1.10
2023-01-19T01:12:56.427Z,-1.10
2023-01-19T01:15:26.838Z,-1.20
2023-01-19T01:17:54.478Z,-1.10
2023-01-19T01:20:25.533Z,-1.10
2023-01-19T01:22:54.904Z,-1.20
2023-01-19T01:25:24.332Z,-1.30
2023-01-19T01:27:52.380Z,-1.30
2023-01-19T01:30:21.022Z,-1.40
2023-01-19T01:32:48.588Z,-1.40
2023-01-19T01:35:16.457Z,-1.30
2023-01-19T01:37:43.865Z,-1.30
2023-01-19T01:40:17.430Z,-1.40
2023-01-19T01:42:45.713Z,-1.40
2023-01-19T01:45:36.238Z,-1.50
2023-01-19T01:48:15.402Z,-1.50
2023-01-19T01:51:15.390Z,-1.50
2023-01-19T01:53:45.637Z,-1.50
2023-01-19T01:56:20.236Z,-1.40
2023-01-19T01:58:48.241Z,-1.40
2023-01-19T02:01:34.243Z,-1.50
2023-01-19T02:04:01.650Z,-1.60
2023-01-19T02:06:29.738Z,-1.60
2023-01-19T02:09:29.193Z,-1.50
2023-01-19T02:12:15.713Z,-1.60
2023-01-19T02:14:42.973Z,-1.60
2023-01-19T02:17:10.227Z,-1.50
2023-01-19T02:19:44.228Z,-1.50
2023-01-19T02:22:14.153Z,-1.50
2023-01-19T02:24:41.795Z,-1.50
2023-01-19T02:27:10.387Z,-1.40
2023-01-19T02:29:37.719Z,-1.30
2023-01-19T02:32:06.002Z,-1.30
2023-01-19T02:34:33.380Z,-1.30
2023-01-19T02:37:06.942Z,-1.30
2023-01-19T02:39:50.920Z,-1.20
2023-01-19T02:42:25.716Z,-1.10
2023-01-19T02:44:57.914Z,-1.20
2023-01-19T02:47:25.272Z,-1.20
2023-01-19T02:50:00.551Z,-1.20
2023-01-19T02:52:28.545Z,-1.20
2023-01-19T02:55:16.112Z,-1.20
2023-01-19T02:58:05.851Z,-1.20
2023-01-19T03:01:02.147Z,-1.30
2023-01-19T03:03:38.154Z,-1.30
2023-01-19T03:06:17.587Z,-1.30
2023-01-19T03:08:53.094Z,-1.20
2023-01-19T03:11:20.863Z,-1.30
2023-01-19T03:14:01.973Z,-1.30
2023-01-19T03:17:03.589Z,-1.30
2023-01-19T03:19:37.939Z,-1.40
2023-01-19T03:22:13.598Z,-1.40
2023-01-19T03:24:43.657Z,-1.40
2023-01-19T03:27:40.925Z,-1.40
2023-01-19T03:30:18.968Z,-1.30
2023-01-19T03:32:52.972Z,-1.40
2023-01-19T03:35:23.963Z,-1.40
2023-01-19T03:37:55.200Z,-1.40
2023-01-19T03:40:23.685Z,-1.40
2023-01-19T03:42:51.466Z,-1.40
2023-01-19T03:45:19.421Z,-1.40
2023-01-19T03:47:46.762Z,-1.30
2023-01-19T03:50:24.859Z,-1.30
2023-01-19T03:53:18.739Z,-1.30
2023-01-19T03:55:48.785Z,-1.00
2023-01-19T03:58:15.954Z,-1.00
2023-01-19T04:00:43.478Z,-1.00
2023-01-19T04:03:17.834Z,-1.00
2023-01-19T04:05:46.326Z,-1.00
2023-01-19T04:08:13.675Z,-1.00
2023-01-19T04:10:40.858Z,-0.90
2023-01-19T04:13:08.145Z,-0.90
2023-01-19T04:15:35.515Z,-0.80
2023-01-19T04:18:02.746Z,-0.80
2023-01-19T04:20:30.136Z,-0.80
2023-01-19T04:23:01.439Z,-0.70
2023-01-19T04:25:29.462Z,-0.70
2023-01-19T04:27:58.595Z,-0.70
2023-01-19T04:30:27.799Z,-0.60
2023-01-19T04:32:56.531Z,-0.50
2023-01-19T04:35:24.037Z,-0.50
2023-01-19T04:37:51.592Z,-0.40
2023-01-19T04:40:19.031Z,-0.40
2023-01-19T04:42:47.154Z,-0.40
2023-01-19T04:45:14.677Z,-0.40
2023-01-19T04:47:42.892Z,-0.40
2023-01-19T04:50:11.813Z,-0.30
2023-01-19T04:52:39.178Z,-0.30
2023-01-19T04:55:07.683Z,-0.30
2023-01-19T04:57:35.581Z,-0.30
2023-01-19T05:00:03.632Z,-0.20
2023-01-19T05:02:30.996Z,-0.20
2023-01-19T05:04:58.271Z,-0.20
2023-01-19T05:07:25.746Z,-0.10
2023-01-19T05:09:53.036Z,0.00
2023-01-19T05:12:20.788Z,0.10
2023-01-19T05:14:47.975Z,0.20
2023-01-19T05:17:15.537Z,0.20
2023-01-19T05:19:42.743Z,0.10
2023-01-19T05:22:09.928Z,0.10
2023-01-19T05:24:37.427Z,0.20
2023-01-19T05:27:04.703Z,0.20
2023-01-19T05:29:32.700Z,0.10
2023-01-19T05:31:59.932Z,0.10
2023-01-19T05:34:27.412Z,0.10
2023-01-19T05:36:54.535Z,0.10
2023-01-19T05:39:21.714Z,0.20
2023-01-19T05:41:49.040Z,0.20
2023-01-19T05:44:16.798Z,0.20
2023-01-19T05:46:44.081Z,0.20
2023-01-19T05:49:13.122Z,0.20
2023-01-19T05:51:45.481Z,0.20
2023-01-19T05:54:15.556Z,0.20
2023-01-19T05:56:43.252Z,0.20
2023-01-19T05:59:11.213Z,0.30
2023-01-19T06:01:39.958Z,0.20
2023-01-19T06:04:07.831Z,0.20
2023-01-19T06:06:35.075Z,0.20
2023-01-19T06:09:02.289Z,0.20
2023-01-19T06:11:29.583Z,0.30
2023-01-19T06:13:56.825Z,0.30
2023-01-19T06:16:24.228Z,0.40
2023-01-19T06:18:52.061Z,0.30
2023-01-19T06:21:19.407Z,0.40
2023-01-19T06:23:46.615Z,0.40
2023-01-19T06:26:14.131Z,0.30
2023-01-19T06:28:41.254Z,0.30
2023-01-19T06:31:08.477Z,0.30
2023-01-19T06:33:35.989Z,0.40
2023-01-19T06:36:04.028Z,0.30
2023-01-19T06:38:32.809Z,0.40
2023-01-19T06:41:00.084Z,0.50
2023-01-19T06:43:27.361Z,0.50
2023-01-19T06:45:55.217Z,0.50
2023-01-19T06:48:23.073Z,0.60
2023-01-19T06:50:50.508Z,0.60
2023-01-19T06:53:20.089Z,0.60
2023-01-19T06:55:47.248Z,0.60
2023-01-19T06:58:14.628Z,0.60
2023-01-19T07:00:43.130Z,0.60
2023-01-19T07:03:19.378Z,0.60
2023-01-19T07:05:47.036Z,0.60
2023-01-19T07:08:15.857Z,0.60
2023-01-19T07:11:26.218Z,0.60
2023-01-19T07:13:30.585Z,0.60
2023-01-19T07:15:57.983Z,0.70
2023-01-19T07:18:25.275Z,0.70
2023-01-19T07:20:52.539Z,0.70
2023-01-19T07:23:19.756Z,0.70
2023-01-19T07:25:47.597Z,0.70
2023-01-19T07:28:16.789Z,0.70
2023-01-19T07:30:46.438Z,0.70
2023-01-19T07:33:13.673Z,0.70
2023-01-19T07:35:40.909Z,0.70
2023-01-19T07:38:08.237Z,0.70
2023-01-19T07:40:35.611Z,0.70
2023-01-19T07:43:03.633Z,0.70
2023-01-19T07:45:31.252Z,0.70
2023-01-19T07:47:58.541Z,0.70
2023-01-19T07:50:27.847Z,0.80
2023-01-19T07:52:55.643Z,0.70
2023-01-19T07:55:24.164Z,0.80
2023-01-19T07:57:52.294Z,0.80
2023-01-19T08:00:22.265Z,0.80
2023-01-19T08:02:52.651Z,0.80
2023-01-19T08:05:20.631Z,0.90
2023-01-19T08:07:48.591Z,0.90
2023-01-19T08:10:17.837Z,0.90
2023-01-19T08:12:45.009Z,0.90
2023-01-19T08:15:12.387Z,0.90
2023-01-19T08:17:39.760Z,0.90
2023-01-19T08:20:08.811Z,0.90
2023-01-19T08:22:36.079Z,0.90
2023-01-19T08:25:04.259Z,0.90
2023-01-19T08:27:31.752Z,0.90
2023-01-19T08:29:59.373Z,0.90
2023-01-19T08:32:26.696Z,0.90
2023-01-19T08:34:53.909Z,0.90
2023-01-19T08:37:21.356Z,1.00
2023-01-19T08:39:48.489Z,1.00
2023-01-19T08:42:15.609Z,1.00
2023-01-19T08:44:57.263Z,1.00
2023-01-19T08:47:25.195Z,1.00
2023-01-19T08:49:52.707Z,1.00
2023-01-19T08:52:19.912Z,1.10
2023-01-19T08:54:47.292Z,1.10
2023-01-19T08:57:15.675Z,1.10
2023-01-19T08:59:42.775Z,1.10
2023-01-19T09:02:11.258Z,1.10
2023-01-19T09:04:38.463Z,1.10
2023-01-19T09:09:40.052Z,1.10
2023-01-19T09:12:07.348Z,1.10
2023-01-19T09:14:34.494Z,1.10
2023-01-19T09:17:01.656Z,1.10
2023-01-19T09:19:28.986Z,1.20
2023-01-19T09:21:56.377Z,1.20
2023-01-19T09:24:23.863Z,1.20
2023-01-19T09:26:51.285Z,1.10
2023-01-19T09:29:18.530Z,1.10
2023-01-19T09:31:45.919Z,1.10
2023-01-19T09:34:13.192Z,1.10
2023-01-19T09:36:40.746Z,1.10
2023-01-19T09:39:08.115Z,1.10
2023-01-19T09:41:37.060Z,1.00
2023-01-19T09:44:04.940Z,1.00
2023-01-19T09:46:42.923Z,1.00
2023-01-19T09:49:21.803Z,1.10
2023-01-19T09:51:51.536Z,1.00
2023-01-19T09:54:22.215Z,1.00
2023-01-19T09:56:52.378Z,1.00
2023-01-19T09:59:26.174Z,1.00
2023-01-19T10:01:53.492Z,1.00
2023-01-19T10:04:44.305Z,1.10
2023-01-19T10:07:18.852Z,1.00
2023-01-19T10:10:09.822Z,1.00
2023-01-19T10:12:51.388Z,1.00
2023-01-19T10:15:42.159Z,0.90
2023-01-19T10:18:12.580Z,1.00
2023-01-19T10:20:49.649Z,1.00
2023-01-19T10:23:40.918Z,1.00
2023-01-19T10:26:14.221Z,1.00
2023-01-19T10:28:42.253Z,1.00
2023-01-19T10:31:10.299Z,0.90
2023-01-19T10:33:39.096Z,0.90
2023-01-19T10:36:17.604Z,0.90
2023-01-19T10:38:45.864Z,1.00
2023-01-19T10:41:24.501Z,1.00
2023-01-19T10:44:01.299Z,0.90
2023-01-19T10:46:34.481Z,0.90
2023-01-19T10:49:02.391Z,1.00
2023-01-19T10:51:29.785Z,0.90
2023-01-19T10:54:04.166Z,1.00
2023-01-19T10:56:37.506Z,0.90
2023-01-19T10:59:07.211Z,0.90
2023-01-19T11:01:37.336Z,1.00
2023-01-19T11:04:27.047Z,1.00
2023-01-19T11:07:18.519Z,1.00
2023-01-19T11:09:46.154Z,1.00
2023-01-19T11:12:18.725Z,1.00
2023-01-19T11:14:47.272Z,1.10
2023-01-19T11:17:24.896Z,1.00
2023-01-19T11:20:23.289Z,1.10
2023-01-19T11:23:05.679Z,1.00
2023-01-19T11:25:35.896Z,1.10
2023-01-19T11:28:03.891Z,1.10
2023-01-19T11:30:31.976Z,1.10
2023-01-19T11:32:59.377Z,1.10
2023-01-19T11:35:34.640Z,1.10
2023-01-19T11:38:19.618Z,1.10
2023-01-19T11:40:58.799Z,1.10
2023-01-19T11:43:39.812Z,1.10
2023-01-19T11:46:16.759Z,1.10
2023-01-19T11:48:57.518Z,1.10
2023-01-19T11:51:28.567Z,1.20
2023-01-19T11:53:55.869Z,1.10
2023-01-19T11:56:26.983Z,1.20
2023-01-19T11:58:54.631Z,1.20
2023-01-19T12:01:29.507Z,1.30
2023-01-19T12:04:07.376Z,1.30
2023-01-19T12:06:47.958Z,1.40
2023-01-19T12:09:37.119Z,1.40
2023-01-19T12:12:09.157Z,1.50
2023-01-19T12:14:47.370Z,1.60
2023-01-19T12:17:24.615Z,1.60
2023-01-19T12:19:59.681Z,1.70
2023-01-19T12:22:29.375Z,1.80
2023-01-19T12:25:06.360Z,1.90
2023-01-19T12:27:42.546Z,2.00
2023-01-19T12:30:25.764Z,2.00
2023-01-19T12:33:13.798Z,2.10
2023-01-19T12:36:10.488Z,2.10
2023-01-19T12:38:55.591Z,2.10
2023-01-19T12:41:23.066Z,2.20
2023-01-19T12:44:10.150Z,2.30
2023-01-19T12:46:55.775Z,2.30
2023-01-19T12:49:34.411Z,2.40
2023-01-19T12:52:13.739Z,2.30
2023-01-19T12:54:55.807Z,2.30
2023-01-19T12:58:03.041Z,2.30
2023-01-19T13:00:37.917Z,2.30
2023-01-19T13:03:20.129Z,2.30
2023-01-19T13:05:57.321Z,2.20
2023-01-19T13:08:46.239Z,2.20
2023-01-19T13:11:17.365Z,2.20
2023-01-19T13:13:46.599Z,2.30
2023-01-19T13:16:19.971Z,2.30
2023-01-19T13:18:48.659Z,2.30
2023-01-19T13:21:39.763Z,2.30
2023-01-19T13:24:24.361Z,2.40
2023-01-19T13:26:55.389Z,2.40
2023-01-19T13:29:28.499Z,2.30
2023-01-19T13:32:02.844Z,2.30
2023-01-19T13:34:36.107Z,2.20
2023-01-19T13:37:04.945Z,2.10
2023-01-19T13:39:44.449Z,2.10
2023-01-19T13:42:25.833Z,2.00
2023-01-19T13:44:55.238Z,2.10
2023-01-19T13:47:26.887Z,2.00
2023-01-19T13:49:57.405Z,2.00
2023-01-19T13:52:31.525Z,2.00
2023-01-19T13:55:03.274Z,1.90
2023-01-19T13:57:32.790Z,1.90
2023-01-19T14:00:14.947Z,1.90
2023-01-19T14:03:01.971Z,2.00
2023-01-19T14:05:33.734Z,1.90
2023-01-19T14:08:15.280Z,1.90
2023-01-19T14:11:02.473Z,1.90
2023-01-19T14:13:37.674Z,1.90
2023-01-19T14:16:16.200Z,1.90
2023-01-19T14:18:43.903Z,1.80
2023-01-19T14:21:15.931Z,1.80
2023-01-19T14:23:58.156Z,1.80
2023-01-19T14:26:46.761Z,1.80
2023-01-19T14:29:13.995Z,1.70
2023-01-19T14:31:47.444Z,1.70
2023-01-19T14:34:31.233Z,1.60
2023-01-19T14:36:59.186Z,1.70
2023-01-19T14:39:30.248Z,1.70
2023-01-19T14:42:01.208Z,1.70
2023-01-19T14:44:43.338Z,1.60
2023-01-19T14:47:33.794Z,1.60
2023-01-19T14:50:08.356Z,1.50
2023-01-19T14:52:39.907Z,1.50
2023-01-19T14:55:22.076Z,1.50
2023-01-19T14:57:49.365Z,1.40
2023-01-19T15:00:19.321Z,1.30
2023-01-19T15:02:47.638Z,1.30
2023-01-19T15:05:15.094Z,1.20
2023-01-19T15:07:45.775Z,1.20
2023-01-19T15:10:19.599Z,1.10
2023-01-19T15:12:47.880Z,1.10
2023-01-19T15:15:23.074Z,1.00
2023-01-19T15:17:50.903Z,0.90
2023-01-19T15:20:23.304Z,0.90
2023-01-19T15:22:50.909Z,0.80
2023-01-19T15:25:21.014Z,0.80
2023-01-19T15:27:49.092Z,0.80
2023-01-19T15:30:45.633Z,0.70
2023-01-19T15:33:25.729Z,0.70
2023-01-19T15:35:53.594Z,0.60
2023-01-19T15:38:28.046Z,0.60
2023-01-19T15:40:55.254Z,0.60
2023-01-19T15:43:22.714Z,0.50
2023-01-19T15:46:02.457Z,0.40
2023-01-19T15:48:29.771Z,0.40
2023-01-19T15:50:57.058Z,0.40
2023-01-19T15:53:25.684Z,0.40
2023-01-19T15:55:56.029Z,0.30
2023-01-19T15:58:27.128Z,0.30
2023-01-19T16:00:59.427Z,0.20
2023-01-19T16:03:28.501Z,0.20
2023-01-19T16:05:55.980Z,0.10
2023-01-19T16:08:23.500Z,0.10
2023-01-19T16:10:55.715Z,0.10
2023-01-19T16:13:24.632Z,0.10
2023-01-19T16:15:51.812Z,0.10
2023-01-19T16:18:19.614Z,0.10
2023-01-19T16:20:47.003Z,0.00
2023-01-19T16:23:17.572Z,0.00
2023-01-19T16:25:48.172Z,-0.10
2023-01-19T16:28:16.202Z,-0.10
2023-01-19T16:30:43.929Z,-0.10
2023-01-19T16:33:16.307Z,-0.20
2023-01-19T16:35:44.017Z,-0.30
2023-01-19T16:38:11.656Z,-0.30
2023-01-19T16:40:48.411Z,-0.30
2023-01-19T16:43:17.568Z,-0.40
2023-01-19T16:46:01.361Z,-0.40
2023-01-19T16:48:34.740Z,-0.40
2023-01-19T16:51:07.193Z,-0.40
2023-01-19T16:53:35.697Z,-0.50
2023-01-19T16:56:11.893Z,-0.50
2023-01-19T16:58:42.743Z,-0.60
2023-01-19T17:01:21.739Z,-0.60
2023-01-19T17:03:49.133Z,-0.60
2023-01-19T17:06:18.891Z,-0.60
2023-01-19T17:08:47.155Z,-0.60
2023-01-19T17:11:21.290Z,-0.70
2023-01-19T17:13:50.881Z,-0.70
2023-01-19T17:16:27.565Z,-0.70
2023-01-19T17:18:58.982Z,-0.70
2023-01-19T17:21:26.245Z,-0.70
2023-01-19T17:23:55.100Z,-0.70
2023-01-19T17:26:27.369Z,-0.70
2023-01-19T17:29:03.294Z,-0.70
2023-01-19T17:31:32.457Z,-0.70
2023-01-19T17:34:00.310Z,-0.70
2023-01-19T17:36:33.931Z,-0.80
2023-01-19T17:39:05.511Z,-0.80
2023-01-19T17:41:38.385Z,-0.80
2023-01-19T17:44:07.234Z,-0.80
2023-01-19T17:46:38.685Z,-0.80
2023-01-19T17:49:08.412Z,-0.90
2023-01-19T17:51:36.127Z,-0.90
2023-01-19T17:54:04.819Z,-0.90
2023-01-19T17:56:37.600Z,-0.90
2023-01-19T17:59:08.182Z,-0.90
2023-01-19T18:01:40.789Z,-0.90
2023-01-19T18:04:09.430Z,-0.90
2023-01-19T18:06:37.720Z,-0.90
2023-01-19T18:09:07.059Z,-1.00
2023-01-19T18:11:34.651Z,-1.00
2023-01-19T18:14:02.578Z,-1.00
2023-01-19T18:16:31.083Z,-0.80
2023-01-19T18:18:58.704Z,-0.90
2023-01-19T18:21:29.075Z,-1.00
2023-01-19T18:24:02.773Z,-1.00
2023-01-19T18:26:31.544Z,-1.00
2023-01-19T18:28:59.594Z,-1.10
2023-01-19T18:31:28.435Z,-1.10
2023-01-19T18:33:55.860Z,-1.10
2023-01-19T18:36:23.129Z,-1.10
2023-01-19T18:38:50.662Z,-1.10
2023-01-19T18:41:20.654Z,-1.10
2023-01-19T18:43:52.299Z,-1.10
2023-01-19T18:46:21.409Z,-1.10
2023-01-19T18:48:48.601Z,-1.10
2023-01-19T18:51:16.489Z,-1.10
2023-01-19T18:53:45.121Z,-1.20
2023-01-19T18:56:14.012Z,-1.20
2023-01-19T18:58:41.604Z,-1.10
2023-01-19T19:01:29.171Z,-1.10
2023-01-19T19:03:58.045Z,-1.10
2023-01-19T19:06:27.875Z,-1.10
2023-01-19T19:08:57.647Z,-1.20
2023-01-19T19:11:26.679Z,-1.20
2023-01-19T19:13:58.984Z,-1.20
2023-01-19T19:16:26.456Z,-1.20
2023-01-19T19:18:53.706Z,-1.20
2023-01-19T19:21:22.749Z,-1.10
2023-01-19T19:23:56.219Z,-1.00
2023-01-19T19:26:24.997Z,-1.10
2023-01-19T19:28:52.302Z,-1.10
2023-01-19T19:31:22.531Z,-1.10
2023-01-19T19:33:51.451Z,-1.10
2023-01-19T19:36:20.311Z,-1.00
2023-01-19T19:38:48.892Z,-1.10
2023-01-19T19:41:22.453Z,-1.10
2023-01-19T19:43:50.233Z,-1.00
2023-01-19T19:46:23.132Z,-1.10
2023-01-19T19:48:51.173Z,-1.10
2023-01-19T19:51:24.443Z,-1.10
2023-01-19T19:53:53.295Z,-1.20
2023-01-19T19:56:22.544Z,-1.10
2023-01-19T19:58:50.705Z,-1.10
2023-01-19T20:01:26.075Z,-1.00
2023-01-19T20:03:54.554Z,-0.90
2023-01-19T20:06:24.318Z,-0.70
2023-01-19T20:08:54.093Z,-0.80
2023-01-19T20:11:27.788Z,-0.80
2023-01-19T20:13:55.478Z,-0.90
2023-01-19T20:16:24.091Z,-0.90
2023-01-19T20:18:54.380Z,-0.80
2023-01-19T20:21:29.558Z,-0.80
2023-01-19T20:24:00.141Z,-0.70
2023-01-19T20:26:30.585Z,-0.70
2023-01-19T20:29:00.169Z,-0.80
2023-01-19T20:31:31.459Z,-0.80
2023-01-19T20:34:01.306Z,-0.80
2023-01-19T20:36:29.471Z,-0.80
2023-01-19T20:38:57.831Z,-0.80
2023-01-19T20:41:26.115Z,-0.90
2023-01-19T20:43:53.477Z,-0.90
2023-01-19T20:46:20.709Z,-0.90
2023-01-19T20:48:53.099Z,-0.90
2023-01-19T20:51:20.623Z,-0.80
2023-01-19T20:53:48.417Z,-0.90
2023-01-19T20:56:16.524Z,-0.90
2023-01-19T20:58:43.935Z,-0.90
2023-01-19T21:01:20.271Z,-1.00
2023-01-19T21:03:48.608Z,-1.00
2023-01-19T21:06:16.021Z,-1.00
2023-01-19T21:08:43.696Z,-1.00
2023-01-19T21:11:11.021Z,-1.00
2023-01-19T21:13:38.938Z,-1.00
2023-01-19T21:16:06.718Z,-1.00
2023-01-19T21:18:33.910Z,-1.00
2023-01-19T21:21:01.075Z,-1.00
2023-01-19T21:23:29.062Z,-1.10
2023-01-19T21:25:58.902Z,-1.10
2023-01-19T21:28:27.294Z,-1.10
2023-01-19T21:30:55.615Z,-1.10
2023-01-19T21:33:23.642Z,-1.10
2023-01-19T21:35:52.442Z,-1.10
2023-01-19T21:38:19.875Z,-1.20
2023-01-19T21:40:47.439Z,-1.20
2023-01-19T21:43:14.763Z,-1.20
2023-01-19T21:45:43.163Z,-1.20
2023-01-19T21:48:11.127Z,-1.20
2023-01-19T21:50:39.233Z,-1.20
2023-01-19T21:53:09.644Z,-1.20
2023-01-19T21:55:37.933Z,-1.20
2023-01-19T21:58:05.777Z,-1.20
2023-01-19T22:00:33.037Z,-1.10
2023-01-19T22:03:04.287Z,-1.10
2023-01-19T22:05:36.701Z,-1.10
2023-01-19T22:08:04.956Z,-1.10
2023-01-19T22:10:32.154Z,-1.10
2023-01-19T22:12:59.378Z,-1.20
2023-01-19T22:15:26.709Z,-1.20
2023-01-19T22:17:53.842Z,-1.20
2023-01-19T22:20:21.045Z,-1.20
2023-01-19T22:22:48.653Z,-1.20
2023-01-19T22:25:15.921Z,-1.20
2023-01-19T22:27:43.102Z,-1.30
2023-01-19T22:30:10.714Z,-1.20
2023-01-19T22:32:37.904Z,-1.20
2023-01-19T22:35:05.553Z,-1.20
2023-01-19T22:37:36.670Z,-1.20
2023-01-19T22:40:05.173Z,-1.20
2023-01-19T22:42:32.735Z,-1.20
2023-01-19T22:44:59.894Z,-1.20
2023-01-19T22:47:27.028Z,-1.10
2023-01-19T22:49:54.213Z,-1.10
2023-01-19T22:52:21.366Z,-1.10
2023-01-19T22:54:48.518Z,-1.10
2023-01-19T22:57:15.636Z,-1.10
2023-01-19T22:59:43.872Z,-1.10
2023-01-19T23:02:12.566Z,-1.10
2023-01-19T23:04:39.843Z,-1.20
2023-01-19T23:07:09.598Z,-1.20
2023-01-19T23:09:38.414Z,-1.20
2023-01-19T23:12:05.771Z,-1.20
2023-01-19T23:14:33.150Z,-1.20
2023-01-19T23:17:00.367Z,-1.20
2023-01-19T23:19:27.529Z,-1.20
2023-01-19T23:21:55.314Z,-1.20
2023-01-19T23:24:22.421Z,-1.20
2023-01-19T23:26:50.735Z,-1.20
2023-01-19T23:29:18.400Z,-1.20
2023-01-19T23:31:51.144Z,-1.20
2023-01-19T23:34:18.450Z,-1.20
2023-01-19T23:36:45.954Z,-1.20
2023-01-19T23:39:16.241Z,-1.20
2023-01-19T23:41:43.459Z,-1.10
2023-01-19T23:44:10.639Z,-1.10
2023-01-19T23:46:38.079Z,-1.20
2023-01-19T23:49:05.465Z,-1.20
2023-01-19T23:51:33.548Z,-1.20
2023-01-19T23:54:01.271Z,-1.20
2023-01-19T23:56:34.437Z,-1.20
2023-01-19T23:59:04.968Z,-1.30
